createdAt,value
2023-04-01T00:01:01.399Z,100037.72
2023-04-01T00:03:30.507Z,100042.09
2023-04-01T00:06:00.677Z,100036.59
2023-04-01T00:08:29.444Z,100034.66
2023-04-01T00:10:57.998Z,100032.84
2023-04-01T00:13:27.444Z,100044.28
2023-04-01T00:15:57.551Z,100043.78
2023-04-01T00:18:25.723Z,100027.09
2023-04-01T00:20:54.232Z,100024.44
2023-04-01T00:23:22.241Z,100022.84
2023-04-01T00:25:50.525Z,100018.47
2023-04-01T00:28:21.108Z,100026.34
2023-04-01T00:30:49.093Z,100029.88
2023-04-01T00:33:17.538Z,100027.06
2023-04-01T00:35:45.743Z,100025.38
2023-04-01T00:38:13.552Z,100025.88
2023-04-01T00:40:44.230Z,100028.66
2023-04-01T00:43:18.925Z,100027.56
2023-04-01T00:45:49.364Z,100020.63
2023-04-01T00:48:21.989Z,100021.38
2023-04-01T00:50:57.685Z,100022.81
2023-04-01T00:53:25.372Z,100024.16
2023-04-01T00:56:04.765Z,100023.66
2023-04-01T00:58:36.651Z,100022.47
2023-04-01T01:01:04.460Z,100029.03
2023-04-01T01:03:32.177Z,100024.63
2023-04-01T01:06:24.819Z,100019.25
2023-04-01T01:08:55.377Z,100033.31
2023-04-01T01:11:44.234Z,100021.09
2023-04-01T01:14:42.683Z,100028.97
2023-04-01T01:17:31.619Z,100029.97
2023-04-01T01:20:31.987Z,100018.75
2023-04-01T01:23:36.623Z,100013.00
2023-04-01T01:26:27.300Z,100013.13
2023-04-01T01:29:06.654Z,100023.47
2023-04-01T01:32:18.934Z,100013.38
2023-04-01T01:34:57.073Z,100008.00
2023-04-01T01:37:29.993Z,100015.19
2023-04-01T01:40:04.324Z,100008.25
2023-04-01T01:42:38.461Z,100007.25
2023-04-01T01:45:09.960Z,100010.91
2023-04-01T01:47:38.759Z,100009.28
2023-04-01T01:50:09.379Z,100003.41
2023-04-01T01:52:37.004Z,100007.75
2023-04-01T01:55:23.663Z,100004.09
2023-04-01T01:57:52.430Z,99996.84
2023-04-01T02:00:21.277Z,100002.94
2023-04-01T02:02:50.193Z,100000.34
2023-04-01T02:05:22.481Z,100004.09
2023-04-01T02:08:06.449Z,100002.88
2023-04-01T02:10:39.074Z,100007.06
2023-04-01T02:13:40.623Z,100009.56
2023-04-01T02:16:17.915Z,100010.78
2023-04-01T02:18:50.231Z,100014.28
2023-04-01T02:21:21.952Z,100020.16
2023-04-01T02:23:50.387Z,100013.03
2023-04-01T02:26:18.113Z,100018.44
2023-04-01T02:28:47.931Z,100016.78
2023-04-01T02:31:16.333Z,100020.63
2023-04-01T02:33:43.502Z,100025.34
2023-04-01T02:36:16.071Z,100016.06
2023-04-01T02:38:45.982Z,100020.22
2023-04-01T02:41:13.439Z,100018.38
2023-04-01T02:43:40.634Z,100021.28
2023-04-01T02:46:07.876Z,100022.66
2023-04-01T02:48:35.118Z,100030.69
2023-04-01T02:51:02.362Z,100029.38
2023-04-01T02:53:29.432Z,100036.44
2023-04-01T02:55:57.056Z,100030.25
2023-04-01T02:58:24.342Z,100034.59
2023-04-01T03:00:52.366Z,100041.66
2023-04-01T03:03:19.528Z,100049.19
2023-04-01T03:05:47.194Z,100040.63
2023-04-01T03:08:14.587Z,100047.69
2023-04-01T03:10:41.667Z,100045.25
2023-04-01T03:13:09.308Z,100045.88
2023-04-01T03:15:36.909Z,100054.88
2023-04-01T03:18:04.428Z,100051.00
2023-04-01T03:20:31.874Z,100060.31
2023-04-01T03:23:05.232Z,100046.94
2023-04-01T03:25:32.566Z,100057.84
2023-04-01T03:28:05.399Z,100058.09
2023-04-01T03:30:32.990Z,100058.94
2023-04-01T03:33:01.910Z,100059.38
2023-04-01T03:35:31.913Z,100052.50
2023-04-01T03:37:59.601Z,100053.34
2023-04-01T03:40:27.624Z,100053.28
2023-04-01T03:42:54.874Z,100050.81
2023-04-01T03:45:22.774Z,100055.94
2023-04-01T03:47:50.178Z,100061.28
2023-04-01T03:50:17.450Z,100064.19
2023-04-01T03:52:44.763Z,100062.28
2023-04-01T03:55:12.558Z,100067.38
2023-04-01T03:57:40.684Z,100059.69
2023-04-01T04:00:18.748Z,100062.50
2023-04-01T04:02:50.563Z,100056.06
2023-04-01T04:05:26.053Z,100061.31
2023-04-01T04:07:54.769Z,100064.72
2023-04-01T04:10:24.289Z,100065.47
2023-04-01T04:12:51.829Z,100065.47
2023-04-01T04:15:20.487Z,100061.09
2023-04-01T04:17:48.327Z,100057.88
2023-04-01T04:20:16.733Z,100058.63
2023-04-01T04:22:44.069Z,100061.31
2023-04-01T04:25:11.148Z,100071.38
2023-04-01T04:27:40.438Z,100068.91
2023-04-01T04:30:10.304Z,100074.47
2023-04-01T04:32:38.373Z,100070.81
2023-04-01T04:35:07.677Z,100072.09
2023-04-01T04:37:35.808Z,100083.25
2023-04-01T04:40:02.903Z,100079.81
2023-04-01T04:42:31.420Z,100084.72
2023-04-01T04:45:04.851Z,100087.63
2023-04-01T04:47:32.554Z,100097.88
2023-04-01T04:49:59.694Z,100107.59
2023-04-01T04:52:26.657Z,100112.28
2023-04-01T04:54:53.682Z,100107.06
2023-04-01T04:57:21.107Z,100111.44
2023-04-01T04:59:54.715Z,100097.22
2023-04-01T05:02:37.788Z,100106.19
2023-04-01T05:05:05.657Z,100109.19
2023-04-01T05:07:32.830Z,100106.09
2023-04-01T05:10:00.010Z,100105.44
2023-04-01T05:12:27.836Z,100110.13
2023-04-01T05:15:08.193Z,100102.97
2023-04-01T05:17:35.373Z,100108.44
2023-04-01T05:20:10.189Z,100119.84
2023-04-01T05:22:39.290Z,100123.56
2023-04-01T05:25:06.908Z,100135.34
2023-04-01T05:27:34.458Z,100131.06
2023-04-01T05:30:02.386Z,100131.34
2023-04-01T05:32:53.329Z,100132.44
2023-04-01T05:35:20.515Z,100121.75
2023-04-01T05:37:47.525Z,100127.09
2023-04-01T05:40:14.583Z,100118.19
2023-04-01T05:42:41.801Z,100125.34
2023-04-01T05:45:10.043Z,100135.31
2023-04-01T05:48:03.090Z,100139.75
2023-04-01T05:50:34.967Z,100148.94
2023-04-01T05:53:02.946Z,100156.09
2023-04-01T05:55:30.002Z,100158.69
2023-04-01T05:57:57.311Z,100146.25
2023-04-01T06:00:24.895Z,100143.72
2023-04-01T06:02:53.556Z,100147.75
2023-04-01T06:05:31.570Z,100143.97
2023-04-01T06:08:07.400Z,100149.09
2023-04-01T06:10:54.263Z,100145.34
2023-04-01T06:13:52.879Z,100152.22
2023-04-01T06:16:56.848Z,100149.34
2023-04-01T06:19:33.410Z,100155.53
2023-04-01T06:22:11.065Z,100163.72
2023-04-01T06:24:50.511Z,100156.38
2023-04-01T06:27:46.251Z,100161.31
2023-04-01T06:30:34.560Z,100156.59
2023-04-01T06:33:33.893Z,100164.09
2023-04-01T06:37:14.306Z,100162.19
2023-04-01T06:40:07.420Z,100153.84
2023-04-01T06:43:17.401Z,100159.81
2023-04-01T06:46:32.459Z,100154.28
2023-04-01T06:49:46.197Z,100162.72
2023-04-01T06:52:55.903Z,100155.38
2023-04-01T06:55:49.027Z,100154.72
2023-04-01T06:58:33.374Z,100165.53
2023-04-01T07:01:05.481Z,100165.19
2023-04-01T07:03:54.973Z,100168.00
2023-04-01T07:06:32.037Z,100164.13
2023-04-01T07:09:27.914Z,100165.00
2023-04-01T07:12:32.992Z,100163.53
2023-04-01T07:15:38.777Z,100167.38
2023-04-01T07:18:39.498Z,100158.03
2023-04-01T07:21:23.015Z,100149.81
2023-04-01T07:23:53.103Z,100153.88
2023-04-01T07:26:33.631Z,100162.09
2023-04-01T07:29:01.474Z,100152.69
2023-04-01T07:32:04.666Z,100151.06
2023-04-01T07:35:16.541Z,100150.38
2023-04-01T07:37:53.630Z,100163.84
2023-04-01T07:40:36.619Z,100170.13
2023-04-01T07:43:22.757Z,100177.19
2023-04-01T07:46:45.487Z,100185.94
2023-04-01T07:49:36.477Z,100182.25
2023-04-01T07:52:21.834Z,100190.22
2023-04-01T07:55:11.346Z,100185.84
2023-04-01T07:58:09.778Z,100185.94
2023-04-01T08:01:11.244Z,100177.94
2023-04-01T08:04:08.876Z,100186.75
2023-04-01T08:07:19.448Z,100183.78
2023-04-01T08:10:27.100Z,100182.72
2023-04-01T08:13:31.934Z,100173.47
2023-04-01T08:16:30.528Z,100178.00
2023-04-01T08:19:15.607Z,100167.78
2023-04-01T08:21:52.034Z,100165.47
2023-04-01T08:24:37.346Z,100155.63
2023-04-01T08:27:37.630Z,100154.66
2023-04-01T08:30:22.089Z,100157.31
2023-04-01T08:33:32.004Z,100146.25
2023-04-01T08:36:28.453Z,100160.13
2023-04-01T08:39:36.580Z,100150.00
2023-04-01T08:42:15.338Z,100166.91
2023-04-01T08:45:17.634Z,100152.44
2023-04-01T08:48:35.953Z,100157.91
2023-04-01T08:51:50.263Z,100158.59
2023-04-01T08:54:54.233Z,100159.38
2023-04-01T08:57:58.750Z,100167.53
2023-04-01T09:01:16.089Z,100168.19
2023-04-01T09:04:00.823Z,100167.69
2023-04-01T09:06:40.881Z,100165.66
2023-04-01T09:09:49.699Z,100182.00
2023-04-01T09:12:33.022Z,100169.47
2023-04-01T09:15:27.002Z,100170.56
2023-04-01T09:18:24.629Z,100175.16
2023-04-01T09:21:10.013Z,100173.47
2023-04-01T09:24:04.780Z,100177.22
2023-04-01T09:27:04.194Z,100180.78
2023-04-01T09:30:03.429Z,100185.81
2023-04-01T09:33:37.974Z,100180.03
2023-04-01T09:36:41.446Z,100180.66
2023-04-01T09:39:38.971Z,100169.34
2023-04-01T09:42:14.222Z,100171.22
2023-04-01T09:45:43.093Z,100166.78
2023-04-01T09:48:31.185Z,100162.28
2023-04-01T09:51:12.494Z,100162.66
2023-04-01T09:53:58.721Z,100168.47
2023-04-01T09:57:02.644Z,100155.00
2023-04-01T09:59:58.462Z,100162.81
2023-04-01T10:03:14.462Z,100156.28
2023-04-01T10:06:35.244Z,100158.97
2023-04-01T10:09:59.698Z,100155.72
2023-04-01T10:13:00.890Z,100160.38
2023-04-01T10:15:44.058Z,100149.16
2023-04-01T10:18:34.125Z,100150.44
2023-04-01T10:21:22.780Z,100152.44
2023-04-01T10:24:18.348Z,100140.72
2023-04-01T10:27:23.437Z,100137.63
2023-04-01T10:30:56.471Z,100135.88
2023-04-01T10:33:46.393Z,100130.88
2023-04-01T10:36:38.886Z,100127.97
2023-04-01T10:40:06.484Z,100131.84
2023-04-01T10:43:42.986Z,100117.38
2023-04-01T10:46:41.331Z,100129.09
2023-04-01T10:49:47.875Z,100120.09
2023-04-01T10:52:47.981Z,100117.31
2023-04-01T10:56:11.469Z,100106.75
2023-04-01T11:13:20.669Z,100110.47
2023-04-01T11:19:12.152Z,100111.53
2023-04-01T11:22:11.266Z,100106.69
2023-04-01T11:25:26.883Z,100108.81
2023-04-01T11:29:11.298Z,100104.06
2023-04-01T11:32:06.956Z,100109.38
2023-04-01T11:34:55.554Z,100108.94
2023-04-01T11:37:39.821Z,100096.31
2023-04-01T11:40:38.991Z,100095.09
2023-04-01T11:44:11.824Z,100096.06
2023-04-01T11:47:40.984Z,100097.09
2023-04-01T11:50:28.457Z,100092.19
2023-04-01T11:53:05.314Z,100090.72
2023-04-01T11:55:52.630Z,100082.63
2023-04-01T11:58:46.640Z,100081.41
2023-04-01T12:01:34.717Z,100086.22
2023-04-01T12:04:43.510Z,100081.66
2023-04-01T12:07:40.592Z,100079.47
2023-04-01T12:10:26.170Z,100077.44
2023-04-01T12:13:01.957Z,100068.97
2023-04-01T12:15:58.712Z,100072.84
2023-04-01T12:18:39.820Z,100060.00
2023-04-01T12:21:26.848Z,100060.34
2023-04-01T12:24:26.948Z,100057.28
2023-04-01T12:27:24.980Z,100057.28
2023-04-01T12:30:11.891Z,100057.25
2023-04-01T12:32:54.906Z,100055.22
2023-04-01T12:35:30.565Z,100052.66
2023-04-01T12:38:31.653Z,100051.13
2023-04-01T12:41:26.440Z,100049.63
2023-04-01T12:44:10.904Z,100048.44
2023-04-01T12:46:46.883Z,100050.13
2023-04-01T12:49:41.443Z,100047.38
2023-04-01T12:52:55.216Z,100038.16
2023-04-01T12:55:41.257Z,100039.41
2023-04-01T12:58:37.717Z,100030.22
2023-04-01T13:01:39.166Z,100031.41
2023-04-01T13:04:34.227Z,100024.28
2023-04-01T13:07:22.885Z,100023.41
2023-04-01T13:10:08.649Z,100019.34
2023-04-01T13:13:03.220Z,100017.41
2023-04-01T13:16:05.354Z,100007.50
2023-04-01T13:19:06.592Z,100000.19
2023-04-01T13:22:06.775Z,99996.50
2023-04-01T13:24:36.840Z,99991.22
2023-04-01T13:27:22.215Z,99995.25
2023-04-01T13:30:17.858Z,99987.59
2023-04-01T13:33:21.849Z,99990.84
2023-04-01T13:36:05.068Z,99983.03
2023-04-01T13:38:50.332Z,99983.31
2023-04-01T13:41:57.019Z,99978.13
2023-04-01T13:44:38.826Z,99982.41
2023-04-01T13:47:55.825Z,99979.66
2023-04-01T13:50:58.501Z,99979.28
2023-04-01T13:53:46.990Z,99975.91
2023-04-01T13:56:36.789Z,99970.63
2023-04-01T13:59:51.763Z,99977.06
2023-04-01T14:02:56.264Z,99970.69
2023-04-01T14:05:52.033Z,99969.50
2023-04-01T14:08:34.252Z,99959.25
2023-04-01T14:11:32.286Z,99959.22
2023-04-01T14:14:33.129Z,99958.13
2023-04-01T14:17:11.901Z,99953.88
2023-04-01T14:19:54.792Z,99951.38
2023-04-01T14:22:30.335Z,99952.69
2023-04-01T14:25:39.597Z,99954.84
2023-04-01T14:28:45.901Z,99949.00
2023-04-01T14:31:36.145Z,99947.03
2023-04-01T14:34:31.636Z,99936.16
2023-04-01T14:37:03.393Z,99926.72
2023-04-01T14:40:07.353Z,99919.59
2023-04-01T14:43:02.308Z,99923.06
2023-04-01T14:45:44.343Z,99916.16
2023-04-01T14:48:35.107Z,99909.81
2023-04-01T14:51:39.681Z,99903.25
2023-04-01T14:54:26.487Z,99901.72
2023-04-01T14:57:14.349Z,99902.41
2023-04-01T14:59:54.898Z,99903.78
2023-04-01T15:02:52.353Z,99899.63
2023-04-01T15:05:48.716Z,99897.25
2023-04-01T15:08:29.321Z,99898.13
2023-04-01T15:11:16.765Z,99893.91
2023-04-01T15:14:40.846Z,99889.16
2023-04-01T15:18:03.818Z,99895.09
2023-04-01T15:20:48.756Z,99888.06
2023-04-01T15:24:16.942Z,99886.88
2023-04-01T15:30:34.143Z,99884.41
2023-04-01T15:33:50.144Z,99867.16
2023-04-01T15:36:35.574Z,99873.91
2023-04-01T15:39:17.030Z,99872.63
2023-04-01T15:42:36.473Z,99866.72
2023-04-01T15:45:43.703Z,99872.13
2023-04-01T15:48:35.291Z,99869.41
2023-04-01T15:51:14.747Z,99873.16
2023-04-01T15:54:01.011Z,99874.03
2023-04-01T15:57:03.860Z,99872.06
2023-04-01T16:00:13.330Z,99867.97
2023-04-01T16:03:28.166Z,99867.59
2023-04-01T16:06:53.872Z,99865.25
2023-04-01T16:09:40.345Z,99862.19
2023-04-01T16:12:54.615Z,99864.22
2023-04-01T16:15:39.714Z,99860.69
2023-04-01T16:18:46.880Z,99852.19
2023-04-01T16:21:36.818Z,99862.56
2023-04-01T16:24:34.174Z,99862.75
2023-04-01T16:27:23.532Z,99856.84
2023-04-01T16:30:01.339Z,99858.84
2023-04-01T16:32:47.005Z,99851.41
2023-04-01T16:35:30.129Z,99854.41
2023-04-01T16:41:25.673Z,99847.31
2023-04-01T16:44:23.132Z,99845.44
2023-04-01T16:46:59.135Z,99847.13
2023-04-01T16:49:55.569Z,99852.41
2023-04-01T16:52:50.634Z,99847.31
2023-04-01T16:55:25.993Z,99851.41
2023-04-01T16:57:59.580Z,99850.75
2023-04-01T17:00:42.373Z,99851.94
2023-04-01T17:03:09.452Z,99855.00
2023-04-01T17:05:51.373Z,99850.97
2023-04-01T17:08:39.270Z,99851.47
2023-04-01T17:11:41.436Z,99848.59
2023-04-01T17:14:39.128Z,99850.34
2023-04-01T17:17:40.473Z,99851.22
2023-04-01T17:20:51.755Z,99852.06
2023-04-01T17:23:47.206Z,99855.81
2023-04-01T17:26:41.437Z,99855.16
2023-04-01T17:29:28.961Z,99865.66
2023-04-01T17:35:34.452Z,99860.25
2023-04-01T17:38:10.606Z,99863.81
2023-04-01T17:40:59.662Z,99864.81
2023-04-01T17:43:54.160Z,99861.44
2023-04-01T17:46:57.800Z,99865.47
2023-04-01T17:49:41.233Z,99868.16
2023-04-01T17:52:32.121Z,99879.81
2023-04-01T17:55:36.667Z,99882.69
2023-04-01T17:58:23.213Z,99878.41
2023-04-01T18:01:05.874Z,99873.13
2023-04-01T18:04:01.314Z,99873.09
2023-04-01T18:07:03.958Z,99879.66
2023-04-01T18:10:04.617Z,99872.69
2023-04-01T18:13:41.113Z,99885.47
2023-04-01T18:16:31.429Z,99881.66
2023-04-01T18:19:16.736Z,99883.31
2023-04-01T18:22:08.154Z,99890.34
2023-04-01T18:24:45.152Z,99888.41
2023-04-01T18:27:33.321Z,99884.97
2023-04-01T18:30:30.993Z,99890.47
2023-04-01T18:33:18.616Z,99892.97
2023-04-01T18:35:54.677Z,99895.44
2023-04-01T18:38:51.756Z,99889.66
2023-04-01T18:41:37.257Z,99893.69
2023-04-01T18:44:30.631Z,99891.59
2023-04-01T18:47:35.179Z,99900.31
2023-04-01T18:50:27.678Z,99895.69
2023-04-01T18:53:10.655Z,99894.75
2023-04-01T18:55:48.906Z,99898.78
2023-04-01T18:58:32.473Z,99904.06
2023-04-01T19:01:41.322Z,99901.31
2023-04-01T19:05:07.275Z,99902.88
2023-04-01T19:07:49.008Z,99902.94
2023-04-01T19:11:04.145Z,99908.09
2023-04-01T19:13:58.970Z,99914.94
2023-04-01T19:16:38.907Z,99910.16
2023-04-01T19:19:20.778Z,99915.00
2023-04-01T19:21:54.001Z,99906.34
2023-04-01T19:24:47.188Z,99915.75
2023-04-01T19:31:00.243Z,99908.84
2023-04-01T19:34:05.022Z,99911.28
2023-04-01T19:36:56.011Z,99911.72
2023-04-01T19:40:27.419Z,99920.25
2023-04-01T19:43:15.094Z,99922.81
2023-04-01T19:46:16.304Z,99925.13
2023-04-01T19:49:13.909Z,99929.09
2023-04-01T19:52:32.481Z,99930.66
2023-04-01T19:55:22.716Z,99935.50
2023-04-01T19:58:07.143Z,99931.38
2023-04-01T20:00:56.649Z,99944.44
2023-04-01T20:04:01.205Z,99950.94
2023-04-01T20:06:58.222Z,99946.13
2023-04-01T20:10:00.751Z,99946.41
2023-04-01T20:12:41.652Z,99943.00
2023-04-01T20:15:34.115Z,99948.69
2023-04-01T20:18:28.512Z,99945.28
2023-04-01T20:21:15.929Z,99950.25
2023-04-01T20:23:44.906Z,99951.25
2023-04-01T20:26:15.156Z,99948.84
2023-04-01T20:29:31.242Z,99951.81
2023-04-01T20:32:21.210Z,99966.69
2023-04-01T20:35:10.533Z,99957.31
2023-04-01T20:38:12.557Z,99964.97
2023-04-01T20:40:46.612Z,99966.25
2023-04-01T20:43:50.629Z,99967.66
2023-04-01T20:46:45.261Z,99961.56
2023-04-01T20:49:27.282Z,99970.63
2023-04-01T20:51:57.160Z,99961.00
2023-04-01T20:54:48.044Z,99961.00
2023-04-01T20:57:38.449Z,99961.16
2023-04-01T21:00:43.359Z,99964.81
2023-04-01T21:03:24.539Z,99957.88
2023-04-01T21:06:19.809Z,99962.69
2023-04-01T21:09:18.109Z,99967.63
2023-04-01T21:12:02.358Z,99966.34
2023-04-01T21:14:44.605Z,99973.41
2023-04-01T21:17:52.076Z,99974.38
2023-04-01T21:20:37.797Z,99973.25
2023-04-01T21:23:29.491Z,99982.53
2023-04-01T21:26:24.907Z,99987.34
2023-04-01T21:29:34.847Z,99988.59
2023-04-01T21:32:14.089Z,99991.44
2023-04-01T21:35:02.703Z,99999.03
2023-04-01T21:37:37.991Z,99994.81
2023-04-01T21:41:01.141Z,99998.88
2023-04-01T21:43:57.837Z,100008.03
2023-04-01T21:46:49.177Z,100000.25
2023-04-01T21:50:16.483Z,100005.19
2023-04-01T21:53:03.181Z,100013.53
2023-04-01T21:56:00.609Z,100011.94
2023-04-01T21:59:10.421Z,100012.75
2023-04-01T22:02:12.917Z,100024.88
2023-04-01T22:05:05.413Z,100014.53
2023-04-01T22:07:53.401Z,100013.94
2023-04-01T22:10:29.231Z,100009.78
2023-04-01T22:13:11.515Z,100018.13
2023-04-01T22:15:56.921Z,100026.56
2023-04-01T22:18:56.670Z,100023.22
2023-04-01T22:21:45.919Z,100018.53
2023-04-01T22:24:19.230Z,100015.25
2023-04-01T22:27:22.585Z,100024.50
2023-04-01T22:30:05.024Z,100023.06
2023-04-01T22:32:53.135Z,100026.88
2023-04-01T22:35:38.354Z,100026.38
2023-04-01T22:38:39.237Z,100028.72
2023-04-01T22:41:17.958Z,100040.56
2023-04-01T22:43:46.285Z,100042.06
2023-04-01T22:46:50.167Z,100032.53
2023-04-01T22:49:47.888Z,100033.78
2023-04-01T22:52:49.240Z,100032.06
2023-04-01T22:55:30.362Z,100030.38
2023-04-01T22:58:06.957Z,100031.22
2023-04-01T23:00:44.654Z,100029.41
2023-04-01T23:03:30.998Z,100024.88
2023-04-01T23:06:04.348Z,100032.06
2023-04-01T23:09:04.363Z,100028.53
2023-04-01T23:11:42.057Z,100026.81
2023-04-01T23:14:29.767Z,100028.66
2023-04-01T23:17:16.272Z,100030.63
2023-04-01T23:20:24.684Z,100024.53
2023-04-01T23:23:10.362Z,100019.66
2023-04-01T23:25:48.285Z,100027.25
2023-04-01T23:28:42.107Z,100032.22
2023-04-01T23:31:40.162Z,100031.28
2023-04-01T23:34:13.006Z,100050.53
2023-04-01T23:36:51.109Z,100042.13
2023-04-01T23:39:49.999Z,100039.94
2023-04-01T23:42:20.928Z,100041.31
2023-04-01T23:44:51.415Z,100043.38
2023-04-01T23:47:23.243Z,100041.06
2023-04-01T23:49:58.195Z,100044.13
2023-04-01T23:52:32.347Z,100042.75
2023-04-01T23:55:04.239Z,100049.94
2023-04-01T23:57:36.233Z,100056.28
